createdAt,value
2018-12-05T00:01:19.073Z,97417.41
2018-12-05T00:03:47.735Z,97420.09
2018-12-05T00:06:13.697Z,97423.25
2018-12-05T00:08:43.559Z,97419.17
2018-12-05T00:11:09.525Z,97416.26
2018-12-05T00:13:35.438Z,97420.59
2018-12-05T00:16:01.345Z,97420.06
2018-12-05T00:18:27.197Z,97405.44
2018-12-05T00:20:54.830Z,97401.27
2018-12-05T00:23:20.689Z,97400.23
2018-12-05T00:25:49.539Z,97406.55
2018-12-05T00:28:15.446Z,97403.20
2018-12-05T00:30:45.236Z,97405.90
2018-12-05T00:33:11.111Z,97406.19
2018-12-05T00:35:38.841Z,97406.52
2018-12-05T00:38:04.712Z,97406.62
2018-12-05T00:40:34.572Z,97408.77
2018-12-05T00:43:00.436Z,97402.99
2018-12-05T00:45:29.539Z,97407.58
2018-12-05T00:47:55.611Z,97408.52
2018-12-05T00:50:21.496Z,97395.86
2018-12-05T00:52:47.354Z,97396.44
2018-12-05T00:55:13.231Z,97399.95
2018-12-05T00:57:40.122Z,97418.92
2018-12-05T01:00:07.066Z,97420.03
2018-12-05T01:02:36.080Z,97427.39
2018-12-05T01:05:02.276Z,97420.18
2018-12-05T01:07:29.933Z,97422.33
2018-12-05T01:09:55.803Z,97416.27
2018-12-05T01:12:24.876Z,97414.41
2018-12-05T01:14:51.334Z,97416.16
2018-12-05T01:17:20.404Z,97418.70
2018-12-05T01:19:46.271Z,97416.16
2018-12-05T01:22:15.335Z,97413.29
2018-12-05T01:24:41.260Z,97414.14
2018-12-05T01:27:07.154Z,97409.95
2018-12-05T01:29:33.021Z,97417.63
2018-12-05T01:31:58.943Z,97421.90
2018-12-05T01:34:25.448Z,97414.16
2018-12-05T01:36:51.428Z,97403.03
2018-12-05T01:39:19.601Z,97396.22
2018-12-05T01:41:45.512Z,97390.44
2018-12-05T01:46:42.377Z,97390.34
2018-12-05T01:49:11.369Z,97389.69
2018-12-05T01:51:37.307Z,97388.83
2018-12-05T01:54:04.688Z,97385.09
2018-12-05T01:56:30.585Z,97380.93
2018-12-05T01:59:00.416Z,97372.74
2018-12-05T02:01:26.323Z,97379.97
2018-12-05T02:03:52.171Z,97372.79
2018-12-05T02:06:18.090Z,97381.42
2018-12-05T02:08:43.957Z,97382.44
2018-12-05T02:11:11.120Z,97367.75
2018-12-05T02:13:37.059Z,97380.36
2018-12-05T02:16:07.007Z,97382.12
2018-12-05T02:18:33.159Z,97378.01
2018-12-05T02:21:00.713Z,97369.23
2018-12-05T02:23:26.612Z,97371.67
2018-12-05T02:25:55.697Z,97375.77
2018-12-05T02:28:21.595Z,97377.70
2018-12-05T02:30:50.702Z,97379.53
2018-12-05T02:33:16.747Z,97372.01
2018-12-05T02:35:44.460Z,97364.77
2018-12-05T02:38:10.357Z,97369.50
2018-12-05T02:40:36.334Z,97369.64
2018-12-05T02:43:02.263Z,97368.06
2018-12-05T02:45:28.174Z,97355.62
2018-12-05T02:47:57.243Z,97353.03
2018-12-05T02:50:23.136Z,97344.32
2018-12-05T02:52:51.085Z,97346.76
2018-12-05T02:55:16.980Z,97342.31
2018-12-05T02:57:46.061Z,97339.30
2018-12-05T03:00:12.164Z,97341.48
2018-12-05T03:02:41.663Z,97341.48
2018-12-05T03:05:07.991Z,97345.28
2018-12-05T03:07:35.413Z,97343.23
2018-12-05T03:10:01.438Z,97346.97
2018-12-05T03:12:30.346Z,97351.30
2018-12-05T03:14:59.766Z,97358.77
2018-12-05T03:17:27.357Z,97361.71
2018-12-05T03:19:53.237Z,97367.41
2018-12-05T03:22:19.126Z,97374.25
2018-12-05T03:24:45.045Z,97372.39
2018-12-05T03:27:10.916Z,97369.75
2018-12-05T03:29:36.834Z,97367.92
2018-12-05T03:32:02.724Z,97373.69
2018-12-05T03:34:31.891Z,97379.06
2018-12-05T03:36:57.901Z,97380.36
2018-12-05T03:39:26.923Z,97379.75
2018-12-05T03:41:52.800Z,97384.73
2018-12-05T03:44:21.854Z,97385.95
2018-12-05T03:46:47.761Z,97382.09
2018-12-05T03:49:14.917Z,97381.08
2018-12-05T03:51:40.848Z,97358.09
2018-12-05T03:54:06.734Z,97360.81
2018-12-05T03:56:32.622Z,97360.56
2018-12-05T03:58:58.532Z,97365.95
2018-12-05T04:01:27.963Z,97352.39
2018-12-05T04:03:53.958Z,97348.48
2018-12-05T04:06:21.738Z,97348.48
2018-12-05T04:08:47.627Z,97345.69
2018-12-05T04:11:17.546Z,97344.58
2018-12-05T04:13:43.430Z,97344.90
2018-12-05T04:16:11.228Z,97341.23
2018-12-05T04:18:37.128Z,97345.19
2018-12-05T04:21:06.860Z,97351.89
2018-12-05T04:23:32.907Z,97349.81
2018-12-05T04:26:00.599Z,97352.64
2018-12-05T04:28:26.513Z,97349.37
2018-12-05T04:30:52.421Z,97349.05
2018-12-05T04:33:18.356Z,97342.10
2018-12-05T04:35:44.254Z,97337.41
2018-12-05T04:38:13.495Z,97337.37
2018-12-05T04:40:39.420Z,97347.80
2018-12-05T04:43:07.128Z,97349.95
2018-12-05T04:45:33.029Z,97345.11
2018-12-05T04:48:02.876Z,97357.41
2018-12-05T04:50:28.834Z,97354.08
2018-12-05T04:52:56.404Z,97358.42
2018-12-05T04:55:22.256Z,97352.39
2018-12-05T04:57:51.028Z,97359.45
2018-12-05T05:00:16.971Z,97354.57
2018-12-05T05:02:46.694Z,97357.58
2018-12-05T05:05:12.756Z,97355.71
2018-12-05T05:07:38.645Z,97348.91
2018-12-05T05:10:05.060Z,97352.57
2018-12-05T05:12:31.074Z,97360.14
2018-12-05T05:14:57.170Z,97354.22
2018-12-05T05:17:23.077Z,97357.77
2018-12-05T05:19:52.154Z,97358.52
2018-12-05T05:22:18.032Z,97362.50
2018-12-05T05:24:47.478Z,97356.59
2018-12-05T05:27:13.359Z,97356.05
2018-12-05T05:29:42.848Z,97357.08
2018-12-05T05:32:08.769Z,97246.71
2018-12-05T05:34:36.661Z,97371.81
2018-12-05T05:37:02.569Z,97364.47
2018-12-05T05:39:32.508Z,97368.66
2018-12-05T05:41:58.435Z,97365.48
2018-12-05T05:44:24.363Z,97362.47
2018-12-05T05:46:50.271Z,97353.33
2018-12-05T05:49:16.854Z,97360.93
2018-12-05T05:51:42.808Z,97360.28
2018-12-05T05:54:08.838Z,97366.23
2018-12-05T05:56:37.553Z,97366.45
2018-12-05T05:59:03.552Z,97365.13
2018-12-05T06:01:32.372Z,97355.94
2018-12-05T06:03:58.313Z,97360.14
2018-12-05T06:06:27.860Z,97360.67
2018-12-05T06:08:53.764Z,97347.41
2018-12-05T06:11:22.660Z,97366.55
2018-12-05T06:13:48.578Z,97366.23
2018-12-05T06:16:16.445Z,97365.41
2018-12-05T06:18:42.320Z,97368.70
2018-12-05T06:21:08.275Z,97369.27
2018-12-05T06:23:34.202Z,97367.98
2018-12-05T06:26:00.133Z,97371.17
2018-12-05T06:28:29.691Z,97378.13
2018-12-05T06:30:55.573Z,97383.66
2018-12-05T06:33:24.522Z,97377.09
2018-12-05T06:35:50.404Z,97380.03
2018-12-05T06:38:17.358Z,97379.97
2018-12-05T06:40:43.226Z,97384.02
2018-12-05T06:43:12.210Z,97385.81
2018-12-05T06:45:38.128Z,97395.89
2018-12-05T06:48:07.998Z,97397.90
2018-12-05T06:50:33.970Z,97392.59
2018-12-05T06:53:03.100Z,97389.80
2018-12-05T06:55:29.030Z,97377.70
2018-12-05T06:57:55.132Z,97382.52
2018-12-05T07:00:21.020Z,97383.70
2018-12-05T07:02:46.888Z,97380.75
2018-12-05T07:05:14.092Z,97377.59
2018-12-05T07:07:39.999Z,97384.91
2018-12-05T07:10:07.842Z,97389.53
2018-12-05T07:12:33.782Z,97380.75
2018-12-05T07:15:02.847Z,97384.16
2018-12-05T07:17:28.791Z,97382.55
2018-12-05T07:19:58.224Z,97377.45
2018-12-05T07:22:24.153Z,97382.84
2018-12-05T07:24:53.488Z,97385.28
2018-12-05T07:27:19.411Z,97381.55
2018-12-05T07:29:47.114Z,97380.51
2018-12-05T07:32:13.050Z,97358.95
2018-12-05T07:34:38.945Z,97368.05
2018-12-05T07:37:04.821Z,97368.93
2018-12-05T07:39:30.692Z,97372.03
2018-12-05T07:42:00.012Z,97368.36
2018-12-05T07:44:25.883Z,97366.88
2018-12-05T07:46:53.750Z,97364.33
2018-12-05T07:49:19.646Z,97370.83
2018-12-05T07:51:48.030Z,97369.02
2018-12-05T07:54:13.928Z,97377.37
2018-12-05T07:56:43.212Z,97362.04
2018-12-05T07:59:09.105Z,97364.09
2018-12-05T08:01:38.943Z,97373.24
2018-12-05T08:04:04.955Z,97378.77
2018-12-05T08:06:32.562Z,97385.50
2018-12-05T08:08:58.497Z,97384.83
2018-12-05T08:11:24.474Z,97376.86
2018-12-05T08:13:50.353Z,97373.92
2018-12-05T08:16:16.281Z,97377.97
2018-12-05T08:18:45.687Z,97372.17
2018-12-05T08:21:11.565Z,97365.59
2018-12-05T08:23:38.654Z,97373.31
2018-12-05T08:26:04.530Z,97368.57
2018-12-05T08:28:34.241Z,97371.39
2018-12-05T08:31:00.142Z,97375.91
2018-12-05T08:33:29.152Z,97381.75
2018-12-05T08:35:55.058Z,97368.24
2018-12-05T08:38:22.959Z,97390.02
2018-12-05T08:40:48.889Z,97394.80
2018-12-05T08:43:18.516Z,97395.83
2018-12-05T08:45:44.398Z,97392.22
2018-12-05T08:48:10.272Z,97397.36
2018-12-05T08:50:36.180Z,97391.78
2018-12-05T08:53:02.090Z,97394.48
2018-12-05T08:55:29.828Z,97395.59
2018-12-05T08:57:55.706Z,97391.00
2018-12-05T09:00:25.679Z,97386.06
2018-12-05T09:02:51.632Z,97388.06
2018-12-05T09:05:19.503Z,97395.15
2018-12-05T09:07:45.413Z,97381.78
2018-12-05T09:10:14.403Z,97385.11
2018-12-05T09:12:40.439Z,97385.91
2018-12-05T09:15:08.264Z,97391.79
2018-12-05T09:17:34.190Z,97390.64
2018-12-05T09:20:04.004Z,97388.79
2018-12-05T09:22:41.054Z,97388.27
2018-12-05T09:25:01.953Z,97387.37
2018-12-05T09:27:27.832Z,97388.41
2018-12-05T09:29:53.724Z,97388.63
2018-12-05T09:32:19.617Z,97388.95
2018-12-05T09:34:45.515Z,97385.47
2018-12-05T09:37:11.392Z,97390.19
2018-12-05T09:39:37.297Z,97390.78
2018-12-05T09:42:04.178Z,97397.73
2018-12-05T09:44:30.089Z,97396.90
2018-12-05T09:46:58.872Z,97394.97
2018-12-05T09:49:24.771Z,97387.63
2018-12-05T09:51:53.898Z,97383.04
2018-12-05T09:54:19.786Z,97382.73
2018-12-05T09:56:49.614Z,97375.61
2018-12-05T09:59:15.515Z,97374.69
2018-12-05T10:01:41.412Z,97366.93
2018-12-05T10:04:07.303Z,97360.28
2018-12-05T10:06:33.226Z,97353.73
2018-12-05T10:09:00.388Z,97350.04
2018-12-05T10:11:26.258Z,97346.55
2018-12-05T10:13:54.731Z,97346.17
2018-12-05T10:16:23.084Z,97345.39
2018-12-05T10:18:49.864Z,97350.17
2018-12-05T10:21:15.745Z,97344.73
2018-12-05T10:23:45.523Z,97340.54
2018-12-05T10:26:11.466Z,97342.25
2018-12-05T10:28:40.464Z,97333.78
2018-12-05T10:31:06.642Z,97330.50
2018-12-05T10:33:33.396Z,97330.25
2018-12-05T10:35:59.286Z,97313.44
2018-12-05T10:38:25.186Z,97305.84
2018-12-05T10:40:51.059Z,97293.31
2018-12-05T10:43:16.942Z,97300.88
2018-12-05T10:45:46.756Z,97292.25
2018-12-05T10:48:12.666Z,97283.23
2018-12-05T10:50:40.161Z,97290.60
2018-12-05T10:53:06.178Z,97285.30
2018-12-05T10:55:34.463Z,97285.70
2018-12-05T10:58:00.352Z,97286.70
2018-12-05T11:00:32.590Z,97284.65
2018-12-05T11:06:08.966Z,97285.19
2018-12-05T11:08:41.186Z,97281.67
2018-12-05T11:11:13.206Z,97281.61
2018-12-05T11:13:45.342Z,97291.42
2018-12-05T11:19:15.960Z,97282.31
2018-12-05T11:21:52.746Z,97275.61
2018-12-05T11:24:25.097Z,97267.27
2018-12-05T11:26:51.921Z,97269.96
2018-12-05T11:29:17.808Z,97279.53
2018-12-05T11:31:43.646Z,97282.52
2018-12-05T11:34:09.519Z,97280.27
2018-12-05T11:36:35.436Z,97278.17
2018-12-05T11:39:01.329Z,97277.55
2018-12-05T11:41:27.211Z,97262.42
2018-12-05T11:43:53.112Z,97259.99
2018-12-05T11:46:19.150Z,97254.92
2018-12-05T11:48:45.019Z,97254.61
2018-12-05T11:51:11.131Z,97252.00
2018-12-05T11:53:37.020Z,97249.77
2018-12-05T11:56:02.933Z,97247.96
2018-12-05T11:58:28.898Z,97246.41
2018-12-05T12:00:54.800Z,97244.48
2018-12-05T12:03:20.705Z,97238.74
2018-12-05T12:05:46.588Z,97234.22
2018-12-05T12:08:12.472Z,97233.22
2018-12-05T12:10:39.190Z,97233.69
2018-12-05T12:13:05.303Z,97225.23
2018-12-05T12:15:31.589Z,97216.57
2018-12-05T12:17:57.523Z,97207.55
2018-12-05T12:20:23.431Z,97199.69
2018-12-05T12:22:53.228Z,97200.15
2018-12-05T12:25:19.098Z,97201.88
2018-12-05T12:27:44.968Z,97197.44
2018-12-05T12:30:15.820Z,97196.53
2018-12-05T12:32:38.718Z,97191.35
2018-12-05T12:35:04.771Z,97185.70
2018-12-05T12:37:30.639Z,97181.36
2018-12-05T12:39:56.599Z,97171.06
2018-12-05T12:42:22.475Z,97164.59
2018-12-05T12:44:48.359Z,97155.11
2018-12-05T12:47:14.206Z,97147.30
2018-12-05T12:49:40.091Z,97144.70
2018-12-05T12:52:06.020Z,97150.30
2018-12-05T12:54:31.900Z,97140.56
2018-12-05T12:56:57.819Z,97145.20
2018-12-05T12:59:23.710Z,97142.84
2018-12-05T13:01:49.670Z,97137.61
2018-12-05T13:04:15.605Z,97134.63
2018-12-05T13:06:41.490Z,97136.68
2018-12-05T13:09:07.391Z,97132.57
2018-12-05T13:11:36.619Z,97131.41
2018-12-05T13:14:02.526Z,97127.95
2018-12-05T13:16:31.487Z,97127.30
2018-12-05T13:18:57.406Z,97117.17
2018-12-05T13:21:23.301Z,97115.34
2018-12-05T13:23:49.228Z,97106.56
2018-12-05T13:26:15.090Z,97107.23
2018-12-05T13:28:42.509Z,97105.19
2018-12-05T13:31:08.413Z,97088.90
2018-12-05T13:33:37.443Z,97102.80
2018-12-05T13:36:03.720Z,97099.00
2018-12-05T13:38:31.235Z,97096.19
2018-12-05T13:40:57.145Z,97094.00
2018-12-05T13:43:25.854Z,97092.94
2018-12-05T13:45:51.688Z,97089.98
2018-12-05T13:48:21.326Z,97096.48
2018-12-05T13:50:47.228Z,97095.19
2018-12-05T13:53:16.620Z,97099.22
2018-12-05T13:55:42.517Z,97091.58
2018-12-05T13:58:08.429Z,97091.28
2018-12-05T14:00:34.285Z,97085.53
2018-12-05T14:03:00.158Z,97086.86
2018-12-05T14:05:27.908Z,97087.08
2018-12-05T14:07:53.826Z,97082.09
2018-12-05T14:10:23.570Z,97079.42
2018-12-05T14:12:49.453Z,97061.09
2018-12-05T14:15:18.523Z,97076.00
2018-12-05T14:17:44.404Z,97077.13
2018-12-05T14:20:12.164Z,97079.82
2018-12-05T14:22:38.026Z,97077.36
2018-12-05T14:25:06.150Z,97069.04
2018-12-05T14:27:32.075Z,97073.63
2018-12-05T14:30:01.824Z,97072.63
2018-12-05T14:32:27.768Z,97064.50
2018-12-05T14:34:53.671Z,97057.86
2018-12-05T14:37:19.594Z,97054.26
2018-12-05T14:39:45.452Z,97050.81
2018-12-05T14:42:12.926Z,97055.34
2018-12-05T14:44:39.185Z,97058.69
2018-12-05T14:47:08.756Z,97058.44
2018-12-05T14:49:34.639Z,97049.45
2018-12-05T14:52:03.774Z,97056.86
2018-12-05T14:54:29.693Z,97043.91
2018-12-05T14:56:57.403Z,97043.97
2018-12-05T14:59:23.272Z,97048.77
2018-12-05T15:01:52.243Z,97049.39
2018-12-05T15:04:18.130Z,97045.96
2018-12-05T15:06:47.024Z,97049.56
2018-12-05T15:09:13.008Z,97040.84
2018-12-05T15:11:38.867Z,97039.23
2018-12-05T15:14:04.761Z,97036.95
2018-12-05T15:16:30.631Z,97035.64
2018-12-05T15:18:58.052Z,97034.13
2018-12-05T15:21:23.900Z,97026.63
2018-12-05T15:23:53.402Z,97018.47
2018-12-05T15:26:19.292Z,97017.22
2018-12-05T15:28:48.381Z,97022.13
2018-12-05T15:31:15.129Z,97017.20
2018-12-05T15:33:42.503Z,97013.31
2018-12-05T15:36:08.391Z,97016.76
2018-12-05T15:38:38.080Z,97011.56
2018-12-05T15:41:03.968Z,97012.39
2018-12-05T15:43:31.770Z,97009.70
2018-12-05T15:45:57.657Z,97010.02
2018-12-05T15:48:23.489Z,97002.84
2018-12-05T15:50:49.393Z,96997.97
2018-12-05T15:53:15.266Z,96995.81
2018-12-05T15:55:43.082Z,96996.35
2018-12-05T15:58:09.000Z,96997.81
2018-12-05T16:00:38.058Z,96999.33
2018-12-05T16:03:03.967Z,96997.09
2018-12-05T16:05:32.892Z,96995.88
2018-12-05T16:07:59.334Z,96998.29
2018-12-05T16:10:28.541Z,96995.36
2018-12-05T16:12:54.459Z,96988.90
2018-12-05T16:15:22.397Z,96988.99
2018-12-05T16:17:48.289Z,96990.34
2018-12-05T16:20:16.685Z,96990.94
2018-12-05T16:22:42.564Z,96983.64
2018-12-05T16:25:08.481Z,96984.55
2018-12-05T16:27:34.344Z,96985.47
2018-12-05T16:30:00.237Z,96974.80
2018-12-05T16:32:28.605Z,96970.52
2018-12-05T16:34:54.533Z,96967.72
2018-12-05T16:37:23.781Z,96968.16
2018-12-05T16:39:49.682Z,96961.13
2018-12-05T16:42:18.414Z,96963.02
2018-12-05T16:44:44.308Z,96955.89
2018-12-05T16:47:13.165Z,96959.33
2018-12-05T16:49:40.489Z,96925.20
2018-12-05T16:52:08.266Z,96966.89
2018-12-05T16:54:34.458Z,96962.95
2018-12-05T16:57:03.856Z,96967.10
2018-12-05T16:59:29.723Z,96958.19
2018-12-05T17:01:55.622Z,96956.36
2018-12-05T17:04:21.506Z,96881.74
2018-12-05T17:06:47.404Z,96963.42
2018-12-05T17:09:14.592Z,96955.83
2018-12-05T17:11:40.460Z,96952.86
2018-12-05T17:14:09.381Z,96953.71
2018-12-05T17:16:35.273Z,96952.80
2018-12-05T17:19:05.579Z,96949.30
2018-12-05T17:21:33.061Z,96946.06
2018-12-05T17:23:59.196Z,96945.36
2018-12-05T17:26:25.094Z,96934.73
2018-12-05T17:28:54.472Z,96928.58
2018-12-05T17:31:20.348Z,96923.34
2018-12-05T17:33:49.458Z,96910.98
2018-12-05T17:36:15.752Z,96907.80
2018-12-05T17:38:41.653Z,96909.37
2018-12-05T17:41:07.538Z,96903.31
2018-12-05T17:43:33.887Z,96906.40
2018-12-05T17:45:59.930Z,96903.42
2018-12-05T17:48:25.883Z,96899.05
2018-12-05T17:50:54.946Z,96899.16
2018-12-05T17:53:20.836Z,96895.88
2018-12-05T17:55:49.776Z,96893.38
2018-12-05T17:58:15.670Z,96888.70
2018-12-05T18:00:44.607Z,96892.34
2018-12-05T18:03:10.532Z,96885.38
2018-12-05T18:05:38.241Z,96888.78
2018-12-05T18:08:04.139Z,96883.28
2018-12-05T18:10:33.072Z,96904.61
2018-12-05T18:12:58.967Z,96883.98
2018-12-05T18:15:24.855Z,96883.74
2018-12-05T18:17:51.164Z,96877.97
2018-12-05T18:20:17.151Z,96872.95
2018-12-05T18:22:44.684Z,96871.59
2018-12-05T18:25:10.619Z,96865.39
2018-12-05T18:27:39.648Z,96864.25
2018-12-05T18:30:06.146Z,96850.20
2018-12-05T18:32:35.171Z,96864.66
2018-12-05T18:35:01.076Z,96860.17
2018-12-05T18:37:29.061Z,96849.81
2018-12-05T18:39:55.409Z,96850.78
2018-12-05T18:42:24.694Z,96846.96
2018-12-05T18:44:50.580Z,96843.28
2018-12-05T18:47:19.639Z,96840.76
2018-12-05T18:49:45.537Z,96838.05
2018-12-05T18:52:11.577Z,96832.61
2018-12-05T18:54:37.433Z,96834.67
2018-12-05T18:57:09.408Z,96840.77
2018-12-05T18:59:34.198Z,96845.61
2018-12-05T19:02:00.078Z,96841.38
2018-12-05T19:04:25.947Z,96839.00
2018-12-05T19:06:51.845Z,96841.61
2018-12-05T19:09:26.841Z,96825.31
2018-12-05T19:11:49.242Z,96827.45
2018-12-05T19:14:21.419Z,96838.33
2018-12-05T19:16:48.553Z,96842.09
2018-12-05T19:19:14.602Z,96849.00
2018-12-05T19:21:40.576Z,96843.17
2018-12-05T19:24:06.620Z,96791.63
2018-12-05T19:26:32.560Z,96845.19
2018-12-05T19:28:58.499Z,96842.61
2018-12-05T19:31:24.413Z,96837.87
2018-12-05T19:33:59.273Z,96829.67
2018-12-05T19:36:25.263Z,96827.29
2018-12-05T19:38:51.410Z,96819.59
2018-12-05T19:41:17.409Z,96777.90
2018-12-05T19:43:43.288Z,96803.05
2018-12-05T19:46:09.188Z,96792.44
2018-12-05T19:48:36.833Z,96777.45
2018-12-05T19:51:02.986Z,96786.36
2018-12-05T19:53:28.893Z,96788.51
2018-12-05T19:55:54.816Z,96780.22
2018-12-05T19:58:20.788Z,96780.42
2018-12-05T20:00:50.339Z,96778.28
2018-12-05T20:03:16.211Z,96781.08
2018-12-05T20:05:42.076Z,96778.49
2018-12-05T20:08:07.979Z,96763.69
2018-12-05T20:10:33.921Z,96766.06
2018-12-05T20:13:01.476Z,96766.77
2018-12-05T20:15:30.654Z,96756.11
2018-12-05T20:17:56.566Z,96765.80
2018-12-05T20:20:22.722Z,96759.63
2018-12-05T20:22:50.364Z,96748.99
2018-12-05T20:25:16.265Z,96761.51
2018-12-05T20:27:45.076Z,96753.63
2018-12-05T20:30:10.971Z,96753.78
2018-12-05T20:32:39.779Z,96759.92
2018-12-05T20:35:05.850Z,96758.69
2018-12-05T20:40:03.978Z,96755.20
2018-12-05T20:42:29.991Z,96747.37
2018-12-05T20:44:55.888Z,96735.97
2018-12-05T20:47:21.766Z,96658.16
2018-12-05T20:49:48.120Z,96758.37
2018-12-05T20:52:13.996Z,96722.93
2018-12-05T20:54:41.089Z,96774.20
2018-12-05T20:57:07.059Z,96769.85
2018-12-05T20:59:35.734Z,96778.73
2018-12-05T21:02:01.639Z,96783.11
2018-12-05T21:04:30.654Z,96770.33
2018-12-05T21:06:56.557Z,96758.31
2018-12-05T21:09:25.622Z,96730.77
2018-12-05T21:11:51.528Z,96728.63
2018-12-05T21:14:21.179Z,96727.28
2018-12-05T21:16:47.143Z,96723.63
2018-12-05T21:19:15.890Z,96712.20
2018-12-05T21:21:41.818Z,96715.22
2018-12-05T21:24:08.386Z,96737.31
2018-12-05T21:26:34.428Z,96729.56
2018-12-05T21:29:00.362Z,96721.33
2018-12-05T21:31:26.250Z,96724.17
2018-12-05T21:33:52.140Z,96727.20
2018-12-05T21:36:21.936Z,96731.08
2018-12-05T21:38:48.049Z,96715.02
2018-12-05T21:41:17.114Z,96713.28
2018-12-05T21:43:43.004Z,96705.20
2018-12-05T21:46:10.725Z,96703.92
2018-12-05T21:48:36.594Z,96715.44
2018-12-05T21:51:05.512Z,96719.17
2018-12-05T21:53:31.389Z,96719.27
2018-12-05T21:55:57.269Z,96711.98
2018-12-05T21:58:23.165Z,96711.13
2018-12-05T22:00:49.051Z,96719.17
2018-12-05T22:03:18.983Z,96716.84
2018-12-05T22:05:44.932Z,96719.66
2018-12-05T22:08:11.403Z,96723.03
2018-12-05T22:10:37.260Z,96726.76
2018-12-05T22:13:06.139Z,96731.55
2018-12-05T22:15:32.051Z,96717.65
2018-12-05T22:18:01.055Z,96727.50
2018-12-05T22:20:26.942Z,96731.17
2018-12-05T22:22:56.385Z,96720.78
2018-12-05T22:25:22.261Z,96728.33
2018-12-05T22:27:51.678Z,96719.05
2018-12-05T22:30:17.608Z,96725.77
2018-12-05T22:32:43.499Z,96719.30
2018-12-05T22:35:11.435Z,96693.34
2018-12-05T22:37:37.370Z,96724.85
2018-12-05T22:40:05.422Z,96719.96
2018-12-05T22:42:31.330Z,96720.84
2018-12-05T22:44:57.196Z,96719.61
2018-12-05T22:47:23.167Z,96713.30
2018-12-05T22:49:52.268Z,96712.32
2018-12-05T22:52:22.632Z,96727.48
2018-12-05T22:54:48.530Z,96721.32
2018-12-05T22:57:14.437Z,96735.18
2018-12-05T22:59:41.751Z,96726.97
2018-12-05T23:02:07.699Z,96736.63
2018-12-05T23:04:36.684Z,96724.13
2018-12-05T23:07:02.752Z,96717.75
2018-12-05T23:09:28.650Z,96724.06
2018-12-05T23:11:54.505Z,96716.17
2018-12-05T23:14:20.347Z,96710.77
2018-12-05T23:16:47.913Z,96712.34
2018-12-05T23:19:13.773Z,96708.34
2018-12-05T23:21:43.468Z,96712.91
2018-12-05T23:24:09.583Z,96712.89
2018-12-05T23:26:37.328Z,96708.84
2018-12-05T23:29:03.372Z,96718.67
2018-12-05T23:31:33.070Z,96712.59
2018-12-05T23:33:58.907Z,96696.27
2018-12-05T23:36:27.872Z,96717.27
2018-12-05T23:38:53.746Z,96713.98
2018-12-05T23:41:21.570Z,96722.28
2018-12-05T23:43:47.483Z,96725.80
2018-12-05T23:46:13.416Z,96730.21
2018-12-05T23:48:39.307Z,96739.09
2018-12-05T23:51:05.185Z,96741.44
2018-12-05T23:53:37.445Z,96743.02
2018-12-05T23:56:03.713Z,96741.68
2018-12-05T23:58:29.612Z,96736.78
